createdAt,value
2019-04-25T00:01:11.652Z,24.87
2019-04-25T00:03:43.653Z,26.57
2019-04-25T00:06:14.702Z,26.73
2019-04-25T00:08:45.240Z,23.57
2019-04-25T00:11:15.336Z,22.67
2019-04-25T00:13:45.645Z,25.73
2019-04-25T00:16:17.594Z,25.87
2019-04-25T00:18:47.442Z,26.93
2019-04-25T00:21:18.885Z,26.07
2019-04-25T00:23:51.589Z,35.37
2019-04-25T00:26:23.100Z,26.27
2019-04-25T00:28:53.481Z,31.50
2019-04-25T00:31:24.762Z,27.23
2019-04-25T00:33:54.878Z,30.13
2019-04-25T00:36:24.831Z,28.33
2019-04-25T00:38:54.640Z,30.37
2019-04-25T00:41:26.892Z,29.77
2019-04-25T00:43:56.720Z,28.17
2019-04-25T00:46:26.468Z,28.00
2019-04-25T00:48:56.227Z,29.30
2019-04-25T00:51:27.206Z,27.67
2019-04-25T00:53:57.069Z,28.27
2019-04-25T00:56:26.884Z,30.00
2019-04-25T00:59:14.610Z,25.93
2019-04-25T01:01:46.830Z,30.27
2019-04-25T01:04:18.899Z,30.57
2019-04-25T01:06:49.615Z,31.57
2019-04-25T01:09:20.243Z,28.13
2019-04-25T01:11:50.069Z,29.90
2019-04-25T01:14:21.731Z,27.57
2019-04-25T01:16:53.031Z,28.13
2019-04-25T01:19:23.542Z,28.50
2019-04-25T01:21:54.930Z,32.23
2019-04-25T01:24:25.405Z,33.43
2019-04-25T01:26:55.892Z,31.27
2019-04-25T01:29:25.747Z,30.10
2019-04-25T01:31:56.374Z,29.93
2019-04-25T01:34:30.959Z,30.03
2019-04-25T01:37:04.102Z,30.90
2019-04-25T01:39:47.721Z,31.77
2019-04-25T01:42:34.489Z,26.90
2019-04-25T01:45:06.593Z,28.87
2019-04-25T01:47:36.426Z,27.53
2019-04-25T01:50:07.514Z,27.90
2019-04-25T01:52:37.668Z,24.57
2019-04-25T01:55:08.125Z,21.83
2019-04-25T01:57:37.923Z,25.83
2019-04-25T02:00:10.092Z,23.83
2019-04-25T02:02:40.060Z,24.23
2019-04-25T02:05:10.128Z,21.27
2019-04-25T02:07:40.135Z,21.33
2019-04-25T02:10:11.460Z,19.37
2019-04-25T02:12:45.471Z,18.77
2019-04-25T02:15:17.036Z,19.90
2019-04-25T02:17:46.877Z,18.20
2019-04-25T02:20:16.798Z,14.43
2019-04-25T02:22:46.557Z,17.03
2019-04-25T02:25:16.486Z,13.10
2019-04-25T02:27:46.291Z,20.10
2019-04-25T02:30:17.671Z,15.00
2019-04-25T02:32:47.540Z,13.67
2019-04-25T02:35:17.548Z,11.20
2019-04-25T02:37:47.516Z,15.20
2019-04-25T02:40:20.663Z,10.73
2019-04-25T02:42:50.547Z,11.90
2019-04-25T02:45:37.387Z,13.33
2019-04-25T02:48:18.265Z,14.23
2019-04-25T02:51:10.660Z,10.97
2019-04-25T02:53:45.028Z,17.47
2019-04-25T02:56:30.236Z,15.83
2019-04-25T02:58:46.867Z,14.77
2019-04-25T03:01:22.641Z,14.23
2019-04-25T03:03:50.027Z,13.90
2019-04-25T03:06:19.924Z,15.43
2019-04-25T03:08:49.792Z,15.33
2019-04-25T03:11:19.812Z,16.57
2019-04-25T03:13:49.724Z,13.23
2019-04-25T03:16:21.163Z,12.77
2019-04-25T03:19:09.023Z,11.13
2019-04-25T03:21:45.203Z,16.90
2019-04-25T03:24:16.714Z,12.60
2019-04-25T03:26:46.970Z,15.00
2019-04-25T03:29:16.815Z,13.53
2019-04-25T03:31:46.735Z,14.93
2019-04-25T03:34:20.220Z,9.60
2019-04-25T03:36:48.151Z,11.67
2019-04-25T03:39:18.017Z,11.17
2019-04-25T03:41:47.810Z,8.77
2019-04-25T03:44:17.627Z,7.10
2019-04-25T03:46:47.332Z,9.67
2019-04-25T03:49:17.324Z,12.00
2019-04-25T03:51:47.275Z,9.90
2019-04-25T03:54:17.141Z,8.03
2019-04-25T03:56:53.651Z,6.43
2019-04-25T03:59:18.570Z,6.40
2019-04-25T04:01:48.426Z,5.53
2019-04-25T04:04:18.275Z,6.43
2019-04-25T04:06:48.143Z,5.47
2019-04-25T04:09:17.883Z,8.27
2019-04-25T04:11:47.738Z,7.73
2019-04-25T04:14:17.750Z,7.00
2019-04-25T04:17:06.721Z,10.00
2019-04-25T04:19:38.612Z,7.10
2019-04-25T04:22:16.259Z,8.10
2019-04-25T04:24:47.803Z,10.63
2019-04-25T04:27:17.697Z,8.60
2019-04-25T04:29:47.519Z,9.27
2019-04-25T04:32:17.437Z,9.73
2019-04-25T04:34:47.198Z,11.47
2019-04-25T04:37:17.552Z,8.73
2019-04-25T04:39:47.476Z,7.27
2019-04-25T04:42:17.925Z,11.37
2019-04-25T04:44:47.895Z,8.30
2019-04-25T04:47:18.545Z,8.87
2019-04-25T04:49:48.379Z,10.03
2019-04-25T04:52:19.350Z,8.37
2019-04-25T04:54:49.290Z,9.97
2019-04-25T04:57:28.843Z,11.00
2019-04-25T04:59:50.773Z,10.73
2019-04-25T05:02:23.540Z,12.37
2019-04-25T05:05:04.432Z,9.13
2019-04-25T05:07:38.859Z,8.57
2019-04-25T05:10:08.815Z,9.17
2019-04-25T05:12:38.560Z,9.97
2019-04-25T05:15:09.368Z,9.97
2019-04-25T05:17:39.140Z,7.63
2019-04-25T05:20:09.231Z,12.93
2019-04-25T05:22:39.203Z,10.80
2019-04-25T05:25:09.257Z,10.80
2019-04-25T05:27:56.922Z,11.07
2019-04-25T05:30:15.327Z,9.57
2019-04-25T05:32:44.245Z,12.87
2019-04-25T05:35:15.311Z,10.30
2019-04-25T05:37:46.074Z,10.13
2019-04-25T05:40:17.105Z,9.13
2019-04-25T05:42:48.837Z,9.67
2019-04-25T05:45:21.269Z,7.83
2019-04-25T05:47:51.236Z,11.10
2019-04-25T05:50:22.526Z,9.80
2019-04-25T05:52:54.145Z,8.50
2019-04-25T05:55:25.166Z,8.87
2019-04-25T05:57:55.359Z,7.40
2019-04-25T06:00:26.055Z,9.37
2019-04-25T06:02:56.691Z,7.67
2019-04-25T06:05:30.058Z,6.53
2019-04-25T06:07:59.989Z,6.03
2019-04-25T06:10:37.464Z,6.40
2019-04-25T06:13:26.402Z,9.17
2019-04-25T06:15:58.144Z,6.47
2019-04-25T06:18:38.591Z,8.67
2019-04-25T06:21:10.088Z,4.40
2019-04-25T06:23:50.852Z,3.70
2019-04-25T06:26:32.818Z,3.80
2019-04-25T06:28:59.042Z,3.77
2019-04-25T06:31:26.556Z,5.13
2019-04-25T06:33:55.589Z,4.47
2019-04-25T06:36:25.490Z,3.33
2019-04-25T06:38:55.197Z,3.00
2019-04-25T06:41:26.165Z,5.37
2019-04-25T06:43:58.404Z,4.33
2019-04-25T06:46:33.845Z,4.17
2019-04-25T06:49:17.219Z,4.37
2019-04-25T06:51:51.242Z,4.53
2019-04-25T06:54:21.992Z,4.00
2019-04-25T06:56:53.537Z,5.03
2019-04-25T06:59:25.914Z,4.77
2019-04-25T07:01:56.285Z,6.07
2019-04-25T07:04:27.088Z,5.63
2019-04-25T07:07:09.693Z,6.13
2019-04-25T07:09:30.053Z,11.33
2019-04-25T07:12:01.141Z,6.53
2019-04-25T07:14:31.556Z,10.20
2019-04-25T07:17:01.622Z,9.80
2019-04-25T07:19:32.108Z,8.30
2019-04-25T07:22:02.030Z,9.20
2019-04-25T07:24:31.837Z,10.57
2019-04-25T07:27:19.674Z,13.60
2019-04-25T07:30:00.149Z,6.40
2019-04-25T07:32:33.057Z,10.17
2019-04-25T07:35:04.432Z,13.73
2019-04-25T07:37:37.120Z,9.83
2019-04-25T07:40:08.129Z,8.73
2019-04-25T07:42:38.115Z,11.83
2019-04-25T07:45:09.810Z,10.93
2019-04-25T07:47:40.154Z,8.50
2019-04-25T07:50:10.387Z,7.27
2019-04-25T07:52:40.318Z,7.63
2019-04-25T07:55:10.435Z,11.37
2019-04-25T07:57:40.295Z,9.90
2019-04-25T08:00:14.977Z,9.50
2019-04-25T08:02:44.888Z,7.97
2019-04-25T08:05:18.178Z,8.70
2019-04-25T08:07:48.171Z,10.03
2019-04-25T08:10:19.062Z,10.37
2019-04-25T08:12:48.955Z,11.07
2019-04-25T08:15:28.254Z,6.57
2019-04-25T08:18:00.603Z,10.33
2019-04-25T08:20:30.591Z,7.50
2019-04-25T08:23:01.869Z,6.27
2019-04-25T08:25:33.781Z,9.17
2019-04-25T08:28:03.845Z,7.83
2019-04-25T08:30:35.317Z,8.83
2019-04-25T08:33:05.863Z,7.40
2019-04-25T08:35:36.511Z,8.30
2019-04-25T08:38:07.642Z,8.87
2019-04-25T08:40:38.923Z,6.07
2019-04-25T08:43:08.913Z,5.90
2019-04-25T08:45:39.704Z,4.03
2019-04-25T08:48:09.691Z,4.83
2019-04-25T08:50:44.566Z,4.10
2019-04-25T08:53:16.140Z,5.27
2019-04-25T08:55:56.865Z,5.90
2019-04-25T08:58:41.235Z,3.83
2019-04-25T09:01:21.380Z,3.93
2019-04-25T09:03:53.908Z,3.53
2019-04-25T09:06:24.358Z,5.30
2019-04-25T09:08:54.313Z,5.13
2019-04-25T09:11:24.501Z,4.70
2019-04-25T09:13:54.443Z,3.13
2019-04-25T09:16:24.316Z,4.60
2019-04-25T09:18:54.156Z,3.30
2019-04-25T09:21:24.061Z,3.27
2019-04-25T09:23:53.973Z,2.77
2019-04-25T09:26:24.189Z,4.70
2019-04-25T09:28:54.186Z,2.93
2019-04-25T09:31:24.214Z,3.37
2019-04-25T09:33:55.607Z,4.47
2019-04-25T09:36:25.536Z,4.53
2019-04-25T09:38:57.056Z,5.67
2019-04-25T09:41:26.932Z,3.20
2019-04-25T09:43:58.451Z,2.80
2019-04-25T09:46:29.916Z,3.30
2019-04-25T09:49:04.329Z,3.23
2019-04-25T09:51:39.701Z,3.90
2019-04-25T09:54:15.192Z,5.07
2019-04-25T09:56:47.194Z,3.07
2019-04-25T09:59:27.158Z,3.07
2019-04-25T10:01:50.525Z,2.97
2019-04-25T10:04:22.874Z,3.70
2019-04-25T10:06:53.476Z,2.77
2019-04-25T10:09:23.987Z,2.80
2019-04-25T10:11:54.710Z,3.70
2019-04-25T10:14:44.793Z,4.77
2019-04-25T10:17:14.346Z,2.47
2019-04-25T10:19:44.217Z,2.30
2019-04-25T10:22:14.116Z,2.60
2019-04-25T10:24:56.456Z,2.20
2019-04-25T10:27:15.644Z,2.33
2019-04-25T10:29:50.920Z,8.40
2019-04-25T10:32:17.036Z,2.40
2019-04-25T10:34:46.814Z,5.70
2019-04-25T10:37:17.062Z,4.20
2019-04-25T10:39:46.998Z,1.93
2019-04-25T10:42:16.794Z,2.13
2019-04-25T10:44:47.139Z,2.70
2019-04-25T10:47:18.269Z,2.83
2019-04-25T10:49:48.304Z,2.80
2019-04-25T10:52:18.314Z,3.87
2019-04-25T10:54:48.141Z,1.30
2019-04-25T10:57:18.133Z,2.40
2019-04-25T11:00:00.953Z,2.73
2019-04-25T11:02:20.118Z,0.90
2019-04-25T11:04:51.771Z,2.13
2019-04-25T11:07:23.384Z,3.23
2019-04-25T11:09:53.923Z,1.50
2019-04-25T11:12:25.134Z,1.37
2019-04-25T11:14:56.096Z,2.83
2019-04-25T11:17:26.244Z,1.20
2019-04-25T11:19:56.175Z,1.53
2019-04-25T11:22:26.162Z,2.67
2019-04-25T11:24:56.093Z,1.90
2019-04-25T11:27:25.929Z,3.03
2019-04-25T11:30:08.472Z,1.77
2019-04-25T11:32:28.810Z,6.90
2019-04-25T11:34:59.626Z,1.53
2019-04-25T11:37:31.174Z,2.60
2019-04-25T11:40:05.417Z,1.00
2019-04-25T11:42:35.255Z,3.00
2019-04-25T11:45:07.310Z,3.53
2019-04-25T11:47:37.131Z,1.07
2019-04-25T11:50:08.902Z,1.47
2019-04-25T11:52:38.903Z,1.20
2019-04-25T11:55:09.461Z,0.53
2019-04-25T11:57:39.325Z,0.70
2019-04-25T12:00:21.640Z,0.80
2019-04-25T12:02:41.690Z,0.70
2019-04-25T12:05:11.596Z,1.50
2019-04-25T12:07:41.445Z,0.80
2019-04-25T12:10:11.368Z,4.70
2019-04-25T12:12:41.200Z,2.97
2019-04-25T12:15:11.066Z,1.90
2019-04-25T12:17:40.826Z,0.60
2019-04-25T12:20:11.108Z,0.80
2019-04-25T12:22:41.045Z,0.87
2019-04-25T12:25:11.160Z,1.90
2019-04-25T12:27:40.948Z,0.63
2019-04-25T12:30:11.186Z,1.80
2019-04-25T12:32:41.012Z,1.30
2019-04-25T12:35:10.914Z,1.53
2019-04-25T12:37:40.930Z,1.50
2019-04-25T12:40:10.831Z,1.60
2019-04-25T12:42:40.937Z,1.47
2019-04-25T12:45:14.183Z,0.93
2019-04-25T12:47:59.202Z,2.30
2019-04-25T12:50:30.492Z,0.70
2019-04-25T12:53:00.312Z,1.50
2019-04-25T12:55:30.340Z,2.17
2019-04-25T12:58:00.439Z,0.67
2019-04-25T13:00:30.579Z,1.17
2019-04-25T13:03:06.506Z,1.33
2019-04-25T13:05:32.286Z,1.37
2019-04-25T13:08:06.601Z,1.63
2019-04-25T13:10:37.893Z,1.60
2019-04-25T13:13:08.399Z,2.10
2019-04-25T13:15:39.198Z,2.90
2019-04-25T13:18:08.970Z,5.73
2019-04-25T13:20:38.838Z,1.57
2019-04-25T13:23:08.833Z,1.53
2019-04-25T13:25:38.658Z,1.07
2019-04-25T13:28:16.128Z,2.87
2019-04-25T13:30:59.648Z,4.10
2019-04-25T13:33:20.877Z,2.50
2019-04-25T13:36:02.104Z,2.73
2019-04-25T13:38:31.952Z,4.30
2019-04-25T13:41:01.942Z,3.07
2019-04-25T13:43:31.890Z,3.10
2019-04-25T13:46:02.029Z,1.77
2019-04-25T13:48:32.354Z,6.00
2019-04-25T13:51:04.112Z,2.83
2019-04-25T13:53:35.618Z,2.83
2019-04-25T13:56:05.740Z,1.13
2019-04-25T13:58:37.862Z,4.70
2019-04-25T14:01:13.057Z,4.50
2019-04-25T14:03:41.480Z,4.10
2019-04-25T14:06:13.626Z,3.33
2019-04-25T14:08:43.636Z,4.13
2019-04-25T14:11:14.051Z,2.50
2019-04-25T14:13:44.040Z,1.90
2019-04-25T14:16:22.557Z,4.93
2019-04-25T14:19:11.243Z,4.73
2019-04-25T14:21:41.143Z,2.23
2019-04-25T14:24:20.306Z,3.03
2019-04-25T14:26:42.359Z,8.23
2019-04-25T14:29:12.187Z,2.13
2019-04-25T14:31:46.778Z,3.10
2019-04-25T14:34:13.583Z,4.60
2019-04-25T14:36:44.266Z,0.73
2019-04-25T14:39:15.860Z,1.47
2019-04-25T14:41:45.702Z,1.10
2019-04-25T14:44:15.513Z,2.60
2019-04-25T14:46:45.373Z,1.63
2019-04-25T14:49:15.155Z,1.23
2019-04-25T14:51:44.969Z,3.67
2019-04-25T14:54:22.959Z,4.20
2019-04-25T14:56:54.512Z,6.27
2019-04-25T14:59:26.458Z,3.50
2019-04-25T15:01:56.720Z,1.77
2019-04-25T15:04:26.532Z,4.03
2019-04-25T15:06:56.434Z,4.37
2019-04-25T15:09:26.818Z,2.63
2019-04-25T15:11:56.772Z,6.33
2019-04-25T15:14:26.996Z,2.63
2019-04-25T15:16:56.801Z,4.00
2019-04-25T15:19:27.523Z,5.17
2019-04-25T15:21:57.294Z,5.00
2019-04-25T15:24:27.107Z,2.63
2019-04-25T15:26:56.931Z,3.37
2019-04-25T15:29:26.800Z,3.50
2019-04-25T15:31:56.691Z,5.93
2019-04-25T15:34:28.426Z,2.10
2019-04-25T15:37:14.943Z,2.87
2019-04-25T15:39:46.374Z,4.70
2019-04-25T15:42:27.376Z,4.80
2019-04-25T15:45:05.252Z,2.37
2019-04-25T15:47:34.982Z,4.33
2019-04-25T15:50:06.498Z,0.80
2019-04-25T15:52:36.604Z,3.47
2019-04-25T15:55:07.959Z,3.70
2019-04-25T15:57:38.367Z,2.93
2019-04-25T16:00:10.791Z,4.00
2019-04-25T16:02:41.150Z,7.47
2019-04-25T16:05:11.137Z,3.67
2019-04-25T16:07:40.929Z,4.40
2019-04-25T16:10:11.122Z,5.23
2019-04-25T16:12:40.977Z,0.93
2019-04-25T16:15:10.967Z,2.07
2019-04-25T16:17:40.888Z,1.67
2019-04-25T16:20:10.787Z,4.00
2019-04-25T16:22:41.377Z,6.60
2019-04-25T16:25:11.323Z,3.90
2019-04-25T16:27:41.139Z,1.77
2019-04-25T16:30:11.481Z,8.20
2019-04-25T16:32:41.446Z,4.27
2019-04-25T16:35:11.369Z,8.53
2019-04-25T16:37:41.394Z,6.27
2019-04-25T16:40:12.179Z,3.77
2019-04-25T16:42:42.006Z,9.93
2019-04-25T16:45:12.070Z,12.57
2019-04-25T16:47:41.955Z,3.00
2019-04-25T16:50:12.848Z,11.70
2019-04-25T16:52:42.746Z,4.90
2019-04-25T16:55:12.976Z,6.23
2019-04-25T16:57:42.867Z,2.63
2019-04-25T17:00:32.103Z,4.80
2019-04-25T17:03:02.148Z,1.50
2019-04-25T17:05:32.453Z,4.33
2019-04-25T17:08:02.284Z,1.97
2019-04-25T17:10:32.836Z,5.20
2019-04-25T17:13:02.819Z,1.77
2019-04-25T17:15:34.344Z,4.07
2019-04-25T17:18:22.073Z,3.97
2019-04-25T17:21:00.931Z,2.47
2019-04-25T17:23:31.193Z,0.93
2019-04-25T17:26:01.491Z,2.77
2019-04-25T17:28:33.014Z,3.10
2019-04-25T17:31:07.636Z,6.00
2019-04-25T17:33:44.725Z,3.83
2019-04-25T17:36:16.125Z,3.87
2019-04-25T17:38:47.760Z,2.43
2019-04-25T17:41:17.574Z,1.90
2019-04-25T17:43:47.413Z,2.43
2019-04-25T17:46:18.821Z,4.03
2019-04-25T17:48:48.718Z,2.10
2019-04-25T17:51:18.774Z,1.40
2019-04-25T17:53:48.633Z,3.37
2019-04-25T17:56:18.858Z,1.47
2019-04-25T17:58:49.081Z,2.17
2019-04-25T18:01:20.606Z,1.07
2019-04-25T18:03:50.493Z,3.77
2019-04-25T18:06:20.599Z,5.00
2019-04-25T18:08:50.512Z,2.40
2019-04-25T18:11:20.299Z,3.00
2019-04-25T18:13:50.233Z,6.17
2019-04-25T18:16:27.410Z,2.20
2019-04-25T18:19:07.504Z,5.73
2019-04-25T18:21:39.361Z,1.53
2019-04-25T18:24:10.779Z,2.33
2019-04-25T18:26:43.387Z,3.90
2019-04-25T18:29:17.832Z,2.70
2019-04-25T18:31:48.445Z,6.10
2019-04-25T18:34:36.010Z,1.40
2019-04-25T18:37:07.491Z,2.50
2019-04-25T18:39:39.867Z,1.97
2019-04-25T18:42:13.840Z,4.13
2019-04-25T18:44:44.160Z,2.00
2019-04-25T18:47:14.076Z,9.23
2019-04-25T18:49:45.467Z,3.67
2019-04-25T18:52:32.122Z,4.13
2019-04-25T18:55:24.202Z,3.17
2019-04-25T18:58:01.842Z,4.50
2019-04-25T19:00:33.399Z,4.27
2019-04-25T19:03:23.405Z,1.40
2019-04-25T19:05:58.965Z,9.17
2019-04-25T19:08:28.772Z,4.03
2019-04-25T19:10:58.700Z,2.23
2019-04-25T19:13:28.641Z,2.33
2019-04-25T19:15:58.627Z,4.97
2019-04-25T19:18:28.434Z,5.23
2019-04-25T19:20:58.184Z,3.23
2019-04-25T19:23:28.060Z,3.50
2019-04-25T19:25:57.894Z,2.00
2019-04-25T19:28:27.705Z,4.23
2019-04-25T19:30:57.662Z,4.50
2019-04-25T19:33:35.655Z,3.97
2019-04-25T19:35:59.160Z,2.13
2019-04-25T19:38:28.915Z,2.03
2019-04-25T19:44:02.243Z,4.27
2019-04-25T19:46:40.343Z,3.77
2019-04-25T19:49:11.218Z,2.30
2019-04-25T19:51:41.785Z,2.57
2019-04-25T19:54:11.618Z,2.03
2019-04-25T19:56:42.663Z,5.80
2019-04-25T19:59:13.180Z,2.43
2019-04-25T20:01:45.900Z,3.17
2019-04-25T20:04:23.282Z,5.50
2019-04-25T20:07:11.311Z,6.17
2019-04-25T20:09:59.019Z,5.80
2019-04-25T20:12:36.409Z,5.73
2019-04-25T20:15:07.689Z,5.37
2019-04-25T20:17:37.443Z,5.20
2019-04-25T20:20:08.005Z,6.03
2019-04-25T20:22:37.855Z,6.03
2019-04-25T20:25:08.013Z,4.83
2019-04-25T20:27:37.829Z,6.53
2019-04-25T20:30:08.205Z,4.97
2019-04-25T20:32:38.004Z,3.50
2019-04-25T20:35:08.052Z,6.77
2019-04-25T20:37:37.787Z,6.47
2019-04-25T20:40:08.634Z,5.63
2019-04-25T20:42:38.492Z,3.57
2019-04-25T20:45:09.171Z,6.43
2019-04-25T20:47:39.014Z,2.57
2019-04-25T20:50:09.036Z,3.93
2019-04-25T20:52:38.831Z,5.07
2019-04-25T20:55:08.667Z,3.70
2019-04-25T20:57:38.498Z,5.17
2019-04-25T21:00:10.386Z,6.60
2019-04-25T21:02:40.111Z,3.50
2019-04-25T21:05:09.997Z,4.30
2019-04-25T21:07:39.803Z,3.53
2019-04-25T21:10:09.884Z,5.92
2019-04-25T21:12:39.662Z,3.60
2019-04-25T21:15:14.736Z,2.80
2019-04-25T21:17:49.854Z,4.03
2019-04-25T21:20:20.581Z,2.90
2019-04-25T21:22:51.761Z,4.50
2019-04-25T21:25:21.641Z,5.83
2019-04-25T21:27:52.525Z,5.10
2019-04-25T21:30:22.556Z,8.17
2019-04-25T21:32:53.522Z,3.80
2019-04-25T21:35:24.140Z,4.77
2019-04-25T21:37:54.151Z,6.57
2019-04-25T21:40:26.553Z,3.63
2019-04-25T21:43:07.205Z,5.00
2019-04-25T21:45:37.417Z,7.60
2019-04-25T21:48:07.273Z,3.03
2019-04-25T21:50:37.229Z,3.43
2019-04-25T21:53:07.608Z,6.67
2019-04-25T21:55:37.679Z,4.97
2019-04-25T21:58:07.948Z,4.77
2019-04-25T22:00:39.753Z,8.07
2019-04-25T22:03:10.262Z,5.03
2019-04-25T22:05:40.350Z,5.00
2019-04-25T22:08:10.165Z,5.83
2019-04-25T22:10:40.279Z,6.83
2019-04-25T22:13:16.197Z,5.77
2019-04-25T22:15:42.095Z,3.97
2019-04-25T22:18:11.852Z,8.23
2019-04-25T22:20:41.602Z,5.30
2019-04-25T22:23:11.676Z,7.73
2019-04-25T22:25:41.907Z,5.60
2019-04-25T22:28:11.919Z,5.80
2019-04-25T22:30:43.573Z,6.70
2019-04-25T22:33:18.058Z,7.23
2019-04-25T22:35:52.438Z,9.73
2019-04-25T22:38:22.637Z,6.23
2019-04-25T22:40:52.534Z,9.60
2019-04-25T22:43:22.653Z,12.03
2019-04-25T22:45:52.709Z,9.73
2019-04-25T22:48:27.435Z,8.37
2019-04-25T22:50:57.282Z,10.43
2019-04-25T22:53:27.119Z,12.03
2019-04-25T22:55:57.306Z,10.60
2019-04-25T22:58:27.068Z,9.53
2019-04-25T23:00:56.996Z,9.70
2019-04-25T23:03:31.112Z,10.83
2019-04-25T23:06:01.265Z,11.00
2019-04-25T23:08:32.306Z,11.27
2019-04-25T23:11:02.873Z,12.70
2019-04-25T23:13:32.736Z,11.53
2019-04-25T23:16:04.087Z,10.23
2019-04-25T23:18:34.374Z,11.53
2019-04-25T23:21:04.260Z,17.57
2019-04-25T23:23:35.655Z,14.00
2019-04-25T23:26:07.893Z,13.77
2019-04-25T23:28:39.496Z,11.53
2019-04-25T23:31:10.879Z,13.30
2019-04-25T23:33:40.829Z,11.30
2019-04-25T23:36:11.248Z,12.17
2019-04-25T23:38:41.093Z,14.33
2019-04-25T23:41:11.483Z,11.97
2019-04-25T23:43:41.266Z,13.70
2019-04-25T23:49:40.055Z,18.10
2019-04-25T23:52:10.953Z,11.37
2019-04-25T23:54:41.002Z,10.40
2019-04-25T23:57:11.251Z,14.60
2019-04-25T23:59:41.011Z,13.23
